sensor_id;sensor_type;location;lat;lon;timestamp;P1;durP1;ratioP1;P2;durP2;ratioP2
69678;SDS011;56915;52.046;4.854;2023-02-11T00:01:21;17.02;;;2.63;;
69678;SDS011;56915;52.046;4.854;2023-02-11T00:03:58;17.35;;;2.42;;
69678;SDS011;56915;52.046;4.854;2023-02-11T00:06:25;14.32;;;2.13;;
69678;SDS011;56915;52.046;4.854;2023-02-11T00:08:54;15.93;;;2.87;;
69678;SDS011;56915;52.046;4.854;2023-02-11T00:11:22;19.50;;;2.40;;
69678;SDS011;56915;52.046;4.854;2023-02-11T00:13:57;20.02;;;2.50;;
69678;SDS011;56915;52.046;4.854;2023-02-11T00:16:25;15.82;;;2.42;;
69678;SDS011;56915;52.046;4.854;2023-02-11T00:18:53;16.90;;;2.28;;
69678;SDS011;56915;52.046;4.854;2023-02-11T00:21:21;16.73;;;2.50;;
69678;SDS011;56915;52.046;4.854;2023-02-11T00:23:49;19.02;;;2.40;;
69678;SDS011;56915;52.046;4.854;2023-02-11T00:26:18;17.55;;;2.30;;
69678;SDS011;56915;52.046;4.854;2023-02-11T00:28:46;15.27;;;2.13;;
69678;SDS011;56915;52.046;4.854;2023-02-11T00:31:14;18.00;;;2.78;;
69678;SDS011;56915;52.046;4.854;2023-02-11T00:33:49;22.10;;;2.90;;
69678;SDS011;56915;52.046;4.854;2023-02-11T00:43:33;17.33;;;2.80;;
69678;SDS011;56915;52.046;4.854;2023-02-11T00:46:01;19.02;;;2.47;;
69678;SDS011;56915;52.046;4.854;2023-02-11T00:48:28;18.23;;;2.80;;
69678;SDS011;56915;52.046;4.854;2023-02-11T00:50:54;17.80;;;2.58;;
69678;SDS011;56915;52.046;4.854;2023-02-11T00:53:22;15.73;;;2.55;;
69678;SDS011;56915;52.046;4.854;2023-02-11T00:55:48;21.63;;;2.53;;
69678;SDS011;56915;52.046;4.854;2023-02-11T00:58:16;17.75;;;2.70;;
69678;SDS011;56915;52.046;4.854;2023-02-11T01:00:43;19.53;;;2.87;;
69678;SDS011;56915;52.046;4.854;2023-02-11T01:03:09;17.00;;;2.50;;
69678;SDS011;56915;52.046;4.854;2023-02-11T01:05:36;16.77;;;2.65;;
69678;SDS011;56915;52.046;4.854;2023-02-11T01:08:05;14.93;;;2.97;;
69678;SDS011;56915;52.046;4.854;2023-02-11T01:10:32;18.10;;;2.78;;
69678;SDS011;56915;52.046;4.854;2023-02-11T01:12:59;11.70;;;2.40;;
69678;SDS011;56915;52.046;4.854;2023-02-11T01:15:26;19.00;;;3.20;;
69678;SDS011;56915;52.046;4.854;2023-02-11T01:17:53;17.40;;;2.95;;
69678;SDS011;56915;52.046;4.854;2023-02-11T01:20:22;18.40;;;2.58;;
69678;SDS011;56915;52.046;4.854;2023-02-11T01:22:51;16.35;;;2.90;;
69678;SDS011;56915;52.046;4.854;2023-02-11T01:25:17;10.47;;;2.17;;
69678;SDS011;56915;52.046;4.854;2023-02-11T01:27:45;18.35;;;2.63;;
69678;SDS011;56915;52.046;4.854;2023-02-11T01:30:12;14.20;;;2.60;;
69678;SDS011;56915;52.046;4.854;2023-02-11T01:32:39;14.65;;;2.95;;
69678;SDS011;56915;52.046;4.854;2023-02-11T01:35:06;14.07;;;2.40;;
69678;SDS011;56915;52.046;4.854;2023-02-11T01:37:33;22.77;;;3.97;;
69678;SDS011;56915;52.046;4.854;2023-02-11T01:40:05;18.25;;;2.65;;
69678;SDS011;56915;52.046;4.854;2023-02-11T01:42:39;17.77;;;3.03;;
69678;SDS011;56915;52.046;4.854;2023-02-11T01:48:15;16.23;;;3.30;;
69678;SDS011;56915;52.046;4.854;2023-02-11T01:50:51;17.53;;;3.40;;
69678;SDS011;56915;52.046;4.854;2023-02-11T01:53:22;13.57;;;2.95;;
69678;SDS011;56915;52.046;4.854;2023-02-11T01:56:08;13.80;;;2.55;;
69678;SDS011;56915;52.046;4.854;2023-02-11T01:58:56;15.27;;;3.13;;
69678;SDS011;56915;52.046;4.854;2023-02-11T02:01:29;10.05;;;2.60;;
69678;SDS011;56915;52.046;4.854;2023-02-11T02:03:59;13.13;;;2.37;;
69678;SDS011;56915;52.046;4.854;2023-02-11T02:06:36;14.07;;;2.75;;
69678;SDS011;56915;52.046;4.854;2023-02-11T02:09:21;17.67;;;3.17;;
69678;SDS011;56915;52.046;4.854;2023-02-11T02:11:51;18.00;;;3.60;;
69678;SDS011;56915;52.046;4.854;2023-02-11T02:14:18;12.35;;;3.08;;
69678;SDS011;56915;52.046;4.854;2023-02-11T02:16:45;20.20;;;3.53;;
69678;SDS011;56915;52.046;4.854;2023-02-11T02:19:18;18.92;;;3.70;;
69678;SDS011;56915;52.046;4.854;2023-02-11T02:25:09;19.73;;;3.72;;
69678;SDS011;56915;52.046;4.854;2023-02-11T02:34:15;16.65;;;3.58;;
69678;SDS011;56915;52.046;4.854;2023-02-11T02:37:09;20.63;;;4.03;;
69678;SDS011;56915;52.046;4.854;2023-02-11T02:39:43;15.80;;;3.72;;
69678;SDS011;56915;52.046;4.854;2023-02-11T02:42:13;17.75;;;3.97;;
69678;SDS011;56915;52.046;4.854;2023-02-11T02:44:46;17.33;;;3.60;;
69678;SDS011;56915;52.046;4.854;2023-02-11T02:47:15;14.45;;;3.83;;
69678;SDS011;56915;52.046;4.854;2023-02-11T02:49:42;17.48;;;3.95;;
69678;SDS011;56915;52.046;4.854;2023-02-11T02:52:18;12.85;;;3.53;;
69678;SDS011;56915;52.046;4.854;2023-02-11T02:55:11;23.95;;;3.90;;
69678;SDS011;56915;52.046;4.854;2023-02-11T02:57:58;21.43;;;3.67;;
69678;SDS011;56915;52.046;4.854;2023-02-11T03:05:51;27.98;;;4.53;;
69678;SDS011;56915;52.046;4.854;2023-02-11T03:10:50;24.27;;;3.60;;
69678;SDS011;56915;52.046;4.854;2023-02-11T03:13:21;17.77;;;3.40;;
69678;SDS011;56915;52.046;4.854;2023-02-11T03:15:54;20.17;;;3.33;;
69678;SDS011;56915;52.046;4.854;2023-02-11T03:18:27;18.40;;;3.53;;
69678;SDS011;56915;52.046;4.854;2023-02-11T03:20:55;18.90;;;4.20;;
69678;SDS011;56915;52.046;4.854;2023-02-11T03:23:59;27.40;;;4.00;;
69678;SDS011;56915;52.046;4.854;2023-02-11T03:26:29;20.25;;;4.00;;
69678;SDS011;56915;52.046;4.854;2023-02-11T03:29:14;22.83;;;4.07;;
69678;SDS011;56915;52.046;4.854;2023-02-11T03:32:00;20.70;;;4.20;;
69678;SDS011;56915;52.046;4.854;2023-02-11T03:34:35;18.35;;;3.95;;
69678;SDS011;56915;52.046;4.854;2023-02-11T03:37:30;21.03;;;4.17;;
69678;SDS011;56915;52.046;4.854;2023-02-11T03:40:03;25.08;;;4.47;;
69678;SDS011;56915;52.046;4.854;2023-02-11T03:42:42;24.48;;;4.88;;
69678;SDS011;56915;52.046;4.854;2023-02-11T03:45:17;27.88;;;5.07;;
69678;SDS011;56915;52.046;4.854;2023-02-11T03:47:54;22.65;;;5.60;;
69678;SDS011;56915;52.046;4.854;2023-02-11T03:50:27;20.77;;;4.83;;
69678;SDS011;56915;52.046;4.854;2023-02-11T03:52:57;32.60;;;6.20;;
69678;SDS011;56915;52.046;4.854;2023-02-11T03:55:26;29.55;;;5.80;;
69678;SDS011;56915;52.046;4.854;2023-02-11T03:57:55;27.27;;;5.55;;
69678;SDS011;56915;52.046;4.854;2023-02-11T04:00:28;21.15;;;6.32;;
69678;SDS011;56915;52.046;4.854;2023-02-11T04:02:56;24.80;;;5.83;;
69678;SDS011;56915;52.046;4.854;2023-02-11T04:05:23;28.80;;;6.35;;
69678;SDS011;56915;52.046;4.854;2023-02-11T04:07:50;25.42;;;6.05;;
69678;SDS011;56915;52.046;4.854;2023-02-11T04:10:17;30.90;;;6.40;;
69678;SDS011;56915;52.046;4.854;2023-02-11T04:12:44;27.08;;;5.97;;
69678;SDS011;56915;52.046;4.854;2023-02-11T04:15:10;25.20;;;6.03;;
69678;SDS011;56915;52.046;4.854;2023-02-11T04:17:37;27.98;;;6.63;;
69678;SDS011;56915;52.046;4.854;2023-02-11T04:20:04;33.58;;;6.30;;
69678;SDS011;56915;52.046;4.854;2023-02-11T04:22:31;34.88;;;6.43;;
69678;SDS011;56915;52.046;4.854;2023-02-11T04:24:57;30.98;;;6.80;;
69678;SDS011;56915;52.046;4.854;2023-02-11T04:27:24;32.27;;;7.10;;
69678;SDS011;56915;52.046;4.854;2023-02-11T04:29:51;32.20;;;6.47;;
69678;SDS011;56915;52.046;4.854;2023-02-11T04:32:19;16.42;;;4.75;;
69678;SDS011;56915;52.046;4.854;2023-02-11T04:34:46;24.42;;;5.97;;
69678;SDS011;56915;52.046;4.854;2023-02-11T04:37:13;27.05;;;6.20;;
69678;SDS011;56915;52.046;4.854;2023-02-11T04:39:40;22.37;;;5.10;;
69678;SDS011;56915;52.046;4.854;2023-02-11T04:42:07;24.63;;;5.82;;
69678;SDS011;56915;52.046;4.854;2023-02-11T04:44:33;19.20;;;5.18;;
69678;SDS011;56915;52.046;4.854;2023-02-11T04:47:00;21.35;;;5.18;;
69678;SDS011;56915;52.046;4.854;2023-02-11T04:49:27;19.17;;;4.88;;
69678;SDS011;56915;52.046;4.854;2023-02-11T04:51:54;18.10;;;4.53;;
69678;SDS011;56915;52.046;4.854;2023-02-11T04:54:21;23.83;;;5.13;;
69678;SDS011;56915;52.046;4.854;2023-02-11T04:56:48;21.10;;;5.07;;
69678;SDS011;56915;52.046;4.854;2023-02-11T04:59:16;22.30;;;5.70;;
69678;SDS011;56915;52.046;4.854;2023-02-11T05:01:43;20.65;;;5.78;;
69678;SDS011;56915;52.046;4.854;2023-02-11T05:04:09;28.03;;;6.33;;
69678;SDS011;56915;52.046;4.854;2023-02-11T05:06:37;27.33;;;6.63;;
69678;SDS011;56915;52.046;4.854;2023-02-11T05:09:05;33.08;;;6.63;;
69678;SDS011;56915;52.046;4.854;2023-02-11T05:11:31;29.48;;;6.95;;
69678;SDS011;56915;52.046;4.854;2023-02-11T05:13:58;32.17;;;6.72;;
69678;SDS011;56915;52.046;4.854;2023-02-11T05:16:25;33.70;;;7.67;;
69678;SDS011;56915;52.046;4.854;2023-02-11T05:18:52;31.30;;;7.40;;
69678;SDS011;56915;52.046;4.854;2023-02-11T05:21:21;31.92;;;7.15;;
69678;SDS011;56915;52.046;4.854;2023-02-11T05:23:47;36.30;;;7.72;;
69678;SDS011;56915;52.046;4.854;2023-02-11T05:26:14;32.92;;;7.95;;
69678;SDS011;56915;52.046;4.854;2023-02-11T05:28:41;35.20;;;7.80;;
69678;SDS011;56915;52.046;4.854;2023-02-11T05:31:10;38.22;;;7.43;;
69678;SDS011;56915;52.046;4.854;2023-02-11T05:33:37;35.50;;;7.90;;
69678;SDS011;56915;52.046;4.854;2023-02-11T05:36:05;37.47;;;8.15;;
69678;SDS011;56915;52.046;4.854;2023-02-11T05:38:34;35.42;;;8.65;;
69678;SDS011;56915;52.046;4.854;2023-02-11T05:41:02;27.70;;;8.10;;
69678;SDS011;56915;52.046;4.854;2023-02-11T05:43:29;39.30;;;8.60;;
69678;SDS011;56915;52.046;4.854;2023-02-11T05:45:56;32.85;;;7.78;;
69678;SDS011;56915;52.046;4.854;2023-02-11T05:48:23;33.63;;;7.72;;
69678;SDS011;56915;52.046;4.854;2023-02-11T05:50:50;37.70;;;8.57;;
69678;SDS011;56915;52.046;4.854;2023-02-11T05:53:17;37.37;;;8.10;;
69678;SDS011;56915;52.046;4.854;2023-02-11T05:55:44;32.72;;;8.65;;
69678;SDS011;56915;52.046;4.854;2023-02-11T05:58:11;34.17;;;8.63;;
69678;SDS011;56915;52.046;4.854;2023-02-11T06:00:38;39.15;;;8.13;;
69678;SDS011;56915;52.046;4.854;2023-02-11T06:03:05;41.55;;;8.93;;
69678;SDS011;56915;52.046;4.854;2023-02-11T06:05:33;34.87;;;9.63;;
69678;SDS011;56915;52.046;4.854;2023-02-11T06:08:00;41.97;;;9.13;;
69678;SDS011;56915;52.046;4.854;2023-02-11T06:10:26;35.00;;;8.18;;
69678;SDS011;56915;52.046;4.854;2023-02-11T06:12:53;31.75;;;7.80;;
69678;SDS011;56915;52.046;4.854;2023-02-11T06:15:20;33.72;;;8.20;;
69678;SDS011;56915;52.046;4.854;2023-02-11T06:17:47;33.87;;;8.43;;
69678;SDS011;56915;52.046;4.854;2023-02-11T06:20:14;36.58;;;8.63;;
69678;SDS011;56915;52.046;4.854;2023-02-11T06:22:41;30.10;;;8.13;;
69678;SDS011;56915;52.046;4.854;2023-02-11T06:25:08;36.67;;;9.30;;
69678;SDS011;56915;52.046;4.854;2023-02-11T06:27:36;36.22;;;9.50;;
69678;SDS011;56915;52.046;4.854;2023-02-11T06:30:04;39.57;;;10.30;;
69678;SDS011;56915;52.046;4.854;2023-02-11T06:32:32;38.00;;;9.48;;
69678;SDS011;56915;52.046;4.854;2023-02-11T06:35:14;41.15;;;9.98;;
69678;SDS011;56915;52.046;4.854;2023-02-11T06:37:41;34.30;;;9.48;;
69678;SDS011;56915;52.046;4.854;2023-02-11T06:40:09;42.40;;;10.10;;
69678;SDS011;56915;52.046;4.854;2023-02-11T06:42:36;38.77;;;10.57;;
69678;SDS011;56915;52.046;4.854;2023-02-11T06:45:04;46.17;;;10.88;;
69678;SDS011;56915;52.046;4.854;2023-02-11T06:47:34;44.15;;;11.43;;
69678;SDS011;56915;52.046;4.854;2023-02-11T06:50:01;50.00;;;12.32;;
69678;SDS011;56915;52.046;4.854;2023-02-11T06:52:28;48.45;;;14.55;;
69678;SDS011;56915;52.046;4.854;2023-02-11T06:57:26;43.78;;;11.70;;
69678;SDS011;56915;52.046;4.854;2023-02-11T06:59:53;37.38;;;11.55;;
69678;SDS011;56915;52.046;4.854;2023-02-11T07:02:20;42.38;;;10.38;;
69678;SDS011;56915;52.046;4.854;2023-02-11T07:04:47;40.53;;;11.85;;
69678;SDS011;56915;52.046;4.854;2023-02-11T07:07:14;42.47;;;13.43;;
69678;SDS011;56915;52.046;4.854;2023-02-11T07:09:41;51.05;;;12.00;;
69678;SDS011;56915;52.046;4.854;2023-02-11T07:12:08;45.72;;;12.68;;
69678;SDS011;56915;52.046;4.854;2023-02-11T07:14:35;44.83;;;12.43;;
69678;SDS011;56915;52.046;4.854;2023-02-11T07:17:02;41.60;;;11.95;;
69678;SDS011;56915;52.046;4.854;2023-02-11T07:19:30;40.80;;;11.47;;
69678;SDS011;56915;52.046;4.854;2023-02-11T07:21:57;43.40;;;12.95;;
69678;SDS011;56915;52.046;4.854;2023-02-11T07:24:23;46.88;;;12.48;;
69678;SDS011;56915;52.046;4.854;2023-02-11T07:29:29;40.08;;;11.95;;
69678;SDS011;56915;52.046;4.854;2023-02-11T07:32:01;34.27;;;11.13;;
69678;SDS011;56915;52.046;4.854;2023-02-11T07:34:29;39.75;;;10.95;;
69678;SDS011;56915;52.046;4.854;2023-02-11T07:36:56;32.80;;;10.70;;
69678;SDS011;56915;52.046;4.854;2023-02-11T07:42:11;39.88;;;11.80;;
69678;SDS011;56915;52.046;4.854;2023-02-11T07:44:38;33.53;;;10.87;;
69678;SDS011;56915;52.046;4.854;2023-02-11T07:47:05;40.30;;;11.77;;
69678;SDS011;56915;52.046;4.854;2023-02-11T07:49:31;40.97;;;11.82;;
69678;SDS011;56915;52.046;4.854;2023-02-11T07:51:59;38.53;;;11.85;;
69678;SDS011;56915;52.046;4.854;2023-02-11T07:54:26;37.88;;;11.10;;
69678;SDS011;56915;52.046;4.854;2023-02-11T07:56:54;41.13;;;12.87;;
69678;SDS011;56915;52.046;4.854;2023-02-11T07:59:21;44.72;;;13.32;;
69678;SDS011;56915;52.046;4.854;2023-02-11T08:01:51;41.92;;;13.50;;
69678;SDS011;56915;52.046;4.854;2023-02-11T08:04:19;46.05;;;14.82;;
69678;SDS011;56915;52.046;4.854;2023-02-11T08:06:46;41.55;;;13.93;;
69678;SDS011;56915;52.046;4.854;2023-02-11T08:09:13;42.93;;;14.93;;
69678;SDS011;56915;52.046;4.854;2023-02-11T08:11:44;56.22;;;17.77;;
69678;SDS011;56915;52.046;4.854;2023-02-11T08:14:11;61.42;;;22.40;;
69678;SDS011;56915;52.046;4.854;2023-02-11T08:16:38;49.83;;;18.92;;
69678;SDS011;56915;52.046;4.854;2023-02-11T08:19:08;44.90;;;16.63;;
69678;SDS011;56915;52.046;4.854;2023-02-11T08:21:37;47.83;;;16.97;;
69678;SDS011;56915;52.046;4.854;2023-02-11T08:24:04;47.60;;;18.73;;
69678;SDS011;56915;52.046;4.854;2023-02-11T08:26:32;55.42;;;21.90;;
69678;SDS011;56915;52.046;4.854;2023-02-11T08:29:01;46.88;;;18.23;;
69678;SDS011;56915;52.046;4.854;2023-02-11T08:31:43;48.53;;;19.20;;
69678;SDS011;56915;52.046;4.854;2023-02-11T08:34:12;41.80;;;16.73;;
69678;SDS011;56915;52.046;4.854;2023-02-11T08:36:40;41.42;;;17.13;;
69678;SDS011;56915;52.046;4.854;2023-02-11T08:39:17;41.05;;;16.83;;
69678;SDS011;56915;52.046;4.854;2023-02-11T08:41:48;44.30;;;16.83;;
69678;SDS011;56915;52.046;4.854;2023-02-11T08:44:18;44.88;;;17.55;;
69678;SDS011;56915;52.046;4.854;2023-02-11T08:46:51;39.03;;;16.30;;
69678;SDS011;56915;52.046;4.854;2023-02-11T08:49:34;41.47;;;14.98;;
69678;SDS011;56915;52.046;4.854;2023-02-11T08:52:01;37.50;;;14.48;;
69678;SDS011;56915;52.046;4.854;2023-02-11T08:54:30;36.88;;;12.65;;
69678;SDS011;56915;52.046;4.854;2023-02-11T09:00:17;38.37;;;12.60;;
69678;SDS011;56915;52.046;4.854;2023-02-11T09:02:45;37.20;;;12.55;;
69678;SDS011;56915;52.046;4.854;2023-02-11T09:05:15;40.28;;;13.60;;
69678;SDS011;56915;52.046;4.854;2023-02-11T09:07:44;36.45;;;12.45;;
69678;SDS011;56915;52.046;4.854;2023-02-11T09:10:11;32.97;;;13.13;;
69678;SDS011;56915;52.046;4.854;2023-02-11T09:12:38;36.30;;;12.73;;
69678;SDS011;56915;52.046;4.854;2023-02-11T09:15:08;35.22;;;12.63;;
69678;SDS011;56915;52.046;4.854;2023-02-11T09:17:35;36.22;;;12.57;;
69678;SDS011;56915;52.046;4.854;2023-02-11T09:20:02;34.63;;;12.70;;
69678;SDS011;56915;52.046;4.854;2023-02-11T09:22:29;38.28;;;14.00;;
69678;SDS011;56915;52.046;4.854;2023-02-11T09:24:59;36.30;;;12.97;;
69678;SDS011;56915;52.046;4.854;2023-02-11T09:27:26;30.88;;;10.93;;
69678;SDS011;56915;52.046;4.854;2023-02-11T09:29:52;34.72;;;10.40;;
69678;SDS011;56915;52.046;4.854;2023-02-11T09:32:19;28.30;;;11.07;;
69678;SDS011;56915;52.046;4.854;2023-02-11T09:34:47;32.00;;;11.35;;
69678;SDS011;56915;52.046;4.854;2023-02-11T09:37:17;29.97;;;10.47;;
69678;SDS011;56915;52.046;4.854;2023-02-11T09:39:45;26.17;;;8.77;;
69678;SDS011;56915;52.046;4.854;2023-02-11T09:42:23;26.02;;;9.68;;
69678;SDS011;56915;52.046;4.854;2023-02-11T09:45:01;33.67;;;13.10;;
69678;SDS011;56915;52.046;4.854;2023-02-11T09:47:33;30.95;;;11.10;;
69678;SDS011;56915;52.046;4.854;2023-02-11T09:50:10;27.27;;;10.70;;
69678;SDS011;56915;52.046;4.854;2023-02-11T09:55:35;27.13;;;9.63;;
69678;SDS011;56915;52.046;4.854;2023-02-11T09:58:19;30.98;;;11.85;;
69678;SDS011;56915;52.046;4.854;2023-02-11T10:06:35;26.95;;;10.32;;
69678;SDS011;56915;52.046;4.854;2023-02-11T10:20:58;25.17;;;10.65;;
69678;SDS011;56915;52.046;4.854;2023-02-11T10:23:36;26.80;;;11.13;;
69678;SDS011;56915;52.046;4.854;2023-02-11T10:26:21;31.27;;;12.20;;
69678;SDS011;56915;52.046;4.854;2023-02-11T10:28:51;28.00;;;12.20;;
69678;SDS011;56915;52.046;4.854;2023-02-11T10:31:21;21.90;;;8.23;;
69678;SDS011;56915;52.046;4.854;2023-02-11T10:34:00;25.02;;;11.00;;
69678;SDS011;56915;52.046;4.854;2023-02-11T10:36:37;25.95;;;11.10;;
69678;SDS011;56915;52.046;4.854;2023-02-11T10:39:14;25.88;;;9.93;;
69678;SDS011;56915;52.046;4.854;2023-02-11T10:41:47;27.70;;;10.88;;
69678;SDS011;56915;52.046;4.854;2023-02-11T10:44:23;23.47;;;10.40;;
69678;SDS011;56915;52.046;4.854;2023-02-11T10:47:13;22.23;;;10.55;;
69678;SDS011;56915;52.046;4.854;2023-02-11T10:49:47;26.73;;;10.98;;
69678;SDS011;56915;52.046;4.854;2023-02-11T10:54:59;20.50;;;9.32;;
69678;SDS011;56915;52.046;4.854;2023-02-11T10:57:30;19.60;;;9.03;;
69678;SDS011;56915;52.046;4.854;2023-02-11T11:00:05;23.45;;;9.82;;
69678;SDS011;56915;52.046;4.854;2023-02-11T11:02:51;21.95;;;9.60;;
69678;SDS011;56915;52.046;4.854;2023-02-11T11:05:31;25.63;;;8.68;;
69678;SDS011;56915;52.046;4.854;2023-02-11T11:08:03;21.80;;;7.63;;
69678;SDS011;56915;52.046;4.854;2023-02-11T11:10:37;15.03;;;6.30;;
69678;SDS011;56915;52.046;4.854;2023-02-11T11:18:39;13.98;;;6.28;;
69678;SDS011;56915;52.046;4.854;2023-02-11T11:21:15;6.88;;;2.85;;
69678;SDS011;56915;52.046;4.854;2023-02-11T11:24:01;7.67;;;3.60;;
69678;SDS011;56915;52.046;4.854;2023-02-11T11:26:44;11.45;;;5.03;;
69678;SDS011;56915;52.046;4.854;2023-02-11T11:29:31;8.35;;;4.07;;
69678;SDS011;56915;52.046;4.854;2023-02-11T11:32:13;12.90;;;5.28;;
69678;SDS011;56915;52.046;4.854;2023-02-11T11:34:50;7.95;;;4.00;;
69678;SDS011;56915;52.046;4.854;2023-02-11T11:37:22;12.83;;;5.50;;
69678;SDS011;56915;52.046;4.854;2023-02-11T11:40:41;9.38;;;4.38;;
69678;SDS011;56915;52.046;4.854;2023-02-11T11:43:40;10.15;;;4.50;;
69678;SDS011;56915;52.046;4.854;2023-02-11T11:45:52;10.73;;;5.15;;
69678;SDS011;56915;52.046;4.854;2023-02-11T11:48:22;11.40;;;5.00;;
69678;SDS011;56915;52.046;4.854;2023-02-11T11:50:57;10.17;;;4.73;;
69678;SDS011;56915;52.046;4.854;2023-02-11T11:56:35;13.38;;;5.03;;
69678;SDS011;56915;52.046;4.854;2023-02-11T11:59:18;10.32;;;4.07;;
69678;SDS011;56915;52.046;4.854;2023-02-11T12:01:49;13.48;;;5.60;;
69678;SDS011;56915;52.046;4.854;2023-02-11T12:12:37;11.32;;;5.13;;
69678;SDS011;56915;52.046;4.854;2023-02-11T12:26:06;13.68;;;6.20;;
69678;SDS011;56915;52.046;4.854;2023-02-11T12:34:47;11.15;;;5.22;;
69678;SDS011;56915;52.046;4.854;2023-02-11T12:40:28;9.70;;;5.20;;
69678;SDS011;56915;52.046;4.854;2023-02-11T12:43:20;10.75;;;5.25;;
69678;SDS011;56915;52.046;4.854;2023-02-11T12:49:08;9.20;;;4.20;;
69678;SDS011;56915;52.046;4.854;2023-02-11T12:51:49;10.63;;;4.45;;
69678;SDS011;56915;52.046;4.854;2023-02-11T12:54:40;8.25;;;3.72;;
69678;SDS011;56915;52.046;4.854;2023-02-11T12:57:30;8.10;;;3.05;;
69678;SDS011;56915;52.046;4.854;2023-02-11T13:00:15;7.63;;;3.07;;
69678;SDS011;56915;52.046;4.854;2023-02-11T13:05:57;10.02;;;4.43;;
69678;SDS011;56915;52.046;4.854;2023-02-11T13:08:31;10.18;;;4.47;;
69678;SDS011;56915;52.046;4.854;2023-02-11T13:11:19;8.82;;;4.20;;
69678;SDS011;56915;52.046;4.854;2023-02-11T13:13:56;8.13;;;3.10;;
69678;SDS011;56915;52.046;4.854;2023-02-11T13:16:40;7.68;;;3.97;;
69678;SDS011;56915;52.046;4.854;2023-02-11T13:24:45;10.10;;;4.35;;
69678;SDS011;56915;52.046;4.854;2023-02-11T13:30:15;8.98;;;3.22;;
69678;SDS011;56915;52.046;4.854;2023-02-11T13:38:01;10.02;;;4.32;;
69678;SDS011;56915;52.046;4.854;2023-02-11T13:40:38;8.37;;;3.37;;
69678;SDS011;56915;52.046;4.854;2023-02-11T13:43:06;9.05;;;4.10;;
69678;SDS011;56915;52.046;4.854;2023-02-11T13:45:47;7.32;;;3.22;;
69678;SDS011;56915;52.046;4.854;2023-02-11T13:48:21;7.97;;;4.22;;
69678;SDS011;56915;52.046;4.854;2023-02-11T13:50:58;8.70;;;3.60;;
69678;SDS011;56915;52.046;4.854;2023-02-11T13:53:28;6.43;;;3.00;;
69678;SDS011;56915;52.046;4.854;2023-02-11T13:56:11;6.30;;;3.25;;
69678;SDS011;56915;52.046;4.854;2023-02-11T13:58:50;17.58;;;3.80;;
69678;SDS011;56915;52.046;4.854;2023-02-11T14:19:01;9.50;;;4.15;;
69678;SDS011;56915;52.046;4.854;2023-02-11T14:21:36;11.30;;;4.30;;
69678;SDS011;56915;52.046;4.854;2023-02-11T14:41:13;9.32;;;4.50;;
69678;SDS011;56915;52.046;4.854;2023-02-11T14:43:53;7.85;;;2.85;;
69678;SDS011;56915;52.046;4.854;2023-02-11T14:46:24;9.10;;;3.65;;
69678;SDS011;56915;52.046;4.854;2023-02-11T14:49:01;10.37;;;4.23;;
69678;SDS011;56915;52.046;4.854;2023-02-11T14:51:31;9.70;;;4.55;;
69678;SDS011;56915;52.046;4.854;2023-02-11T14:54:08;9.73;;;4.95;;
69678;SDS011;56915;52.046;4.854;2023-02-11T14:56:42;14.50;;;6.43;;
69678;SDS011;56915;52.046;4.854;2023-02-11T14:59:18;10.43;;;4.70;;
69678;SDS011;56915;52.046;4.854;2023-02-11T15:01:49;8.40;;;4.00;;
69678;SDS011;56915;52.046;4.854;2023-02-11T15:04:34;8.32;;;3.92;;
69678;SDS011;56915;52.046;4.854;2023-02-11T15:07:05;10.48;;;4.85;;
69678;SDS011;56915;52.046;4.854;2023-02-11T15:09:43;8.70;;;4.03;;
69678;SDS011;56915;52.046;4.854;2023-02-11T15:12:17;5.07;;;2.35;;
69678;SDS011;56915;52.046;4.854;2023-02-11T15:14:54;9.00;;;4.20;;
69678;SDS011;56915;52.046;4.854;2023-02-11T15:17:26;11.10;;;4.28;;
69678;SDS011;56915;52.046;4.854;2023-02-11T15:19:58;11.07;;;4.50;;
69678;SDS011;56915;52.046;4.854;2023-02-11T15:22:33;6.10;;;3.22;;
69678;SDS011;56915;52.046;4.854;2023-02-11T15:25:12;9.05;;;3.60;;
69678;SDS011;56915;52.046;4.854;2023-02-11T15:27:44;8.27;;;4.30;;
69678;SDS011;56915;52.046;4.854;2023-02-11T15:32:47;9.27;;;3.50;;
69678;SDS011;56915;52.046;4.854;2023-02-11T15:35:14;9.23;;;4.32;;
69678;SDS011;56915;52.046;4.854;2023-02-11T15:37:43;10.10;;;4.43;;
69678;SDS011;56915;52.046;4.854;2023-02-11T15:42:54;10.68;;;4.50;;
69678;SDS011;56915;52.046;4.854;2023-02-11T15:48:10;9.60;;;4.50;;
69678;SDS011;56915;52.046;4.854;2023-02-11T15:50:48;10.35;;;4.57;;
69678;SDS011;56915;52.046;4.854;2023-02-11T15:53:20;9.77;;;4.17;;
69678;SDS011;56915;52.046;4.854;2023-02-11T15:55:49;13.60;;;4.80;;
69678;SDS011;56915;52.046;4.854;2023-02-11T15:58:18;8.93;;;4.40;;
69678;SDS011;56915;52.046;4.854;2023-02-11T16:00:49;9.02;;;3.92;;
69678;SDS011;56915;52.046;4.854;2023-02-11T16:03:25;10.07;;;4.32;;
69678;SDS011;56915;52.046;4.854;2023-02-11T16:09:04;11.23;;;3.92;;
69678;SDS011;56915;52.046;4.854;2023-02-11T16:14:20;10.75;;;4.38;;
69678;SDS011;56915;52.046;4.854;2023-02-11T16:19:47;22.93;;;8.30;;
69678;SDS011;56915;52.046;4.854;2023-02-11T16:22:21;18.77;;;7.03;;
69678;SDS011;56915;52.046;4.854;2023-02-11T16:24:52;19.10;;;6.57;;
69678;SDS011;56915;52.046;4.854;2023-02-11T16:27:23;13.80;;;5.80;;
69678;SDS011;56915;52.046;4.854;2023-02-11T16:29:57;11.77;;;4.47;;
69678;SDS011;56915;52.046;4.854;2023-02-11T16:32:26;12.17;;;5.30;;
69678;SDS011;56915;52.046;4.854;2023-02-11T16:37:37;15.27;;;6.53;;
69678;SDS011;56915;52.046;4.854;2023-02-11T16:40:04;11.73;;;4.65;;
69678;SDS011;56915;52.046;4.854;2023-02-11T16:42:31;11.82;;;5.50;;
69678;SDS011;56915;52.046;4.854;2023-02-11T16:44:58;13.10;;;5.30;;
69678;SDS011;56915;52.046;4.854;2023-02-11T16:47:26;13.57;;;6.18;;
69678;SDS011;56915;52.046;4.854;2023-02-11T16:49:54;13.13;;;6.22;;
69678;SDS011;56915;52.046;4.854;2023-02-11T16:52:21;12.52;;;5.40;;
69678;SDS011;56915;52.046;4.854;2023-02-11T16:54:48;13.40;;;6.05;;
69678;SDS011;56915;52.046;4.854;2023-02-11T16:57:19;13.57;;;5.83;;
69678;SDS011;56915;52.046;4.854;2023-02-11T16:59:48;15.43;;;5.63;;
69678;SDS011;56915;52.046;4.854;2023-02-11T17:04:49;13.50;;;5.90;;
69678;SDS011;56915;52.046;4.854;2023-02-11T17:07:20;14.88;;;5.43;;
69678;SDS011;56915;52.046;4.854;2023-02-11T17:09:47;12.43;;;5.03;;
69678;SDS011;56915;52.046;4.854;2023-02-11T17:12:14;13.68;;;6.03;;
69678;SDS011;56915;52.046;4.854;2023-02-11T17:14:41;17.08;;;7.55;;
69678;SDS011;56915;52.046;4.854;2023-02-11T17:17:08;14.48;;;6.75;;
69678;SDS011;56915;52.046;4.854;2023-02-11T17:19:35;18.13;;;7.45;;
69678;SDS011;56915;52.046;4.854;2023-02-11T17:22:03;14.33;;;6.70;;
69678;SDS011;56915;52.046;4.854;2023-02-11T17:24:30;16.70;;;7.25;;
69678;SDS011;56915;52.046;4.854;2023-02-11T17:26:57;19.67;;;8.38;;
69678;SDS011;56915;52.046;4.854;2023-02-11T17:29:24;14.02;;;6.40;;
69678;SDS011;56915;52.046;4.854;2023-02-11T17:31:51;14.30;;;6.70;;
69678;SDS011;56915;52.046;4.854;2023-02-11T17:34:19;17.33;;;6.37;;
69678;SDS011;56915;52.046;4.854;2023-02-11T17:36:47;14.73;;;6.10;;
69678;SDS011;56915;52.046;4.854;2023-02-11T17:39:14;15.07;;;6.90;;
69678;SDS011;56915;52.046;4.854;2023-02-11T17:41:41;10.80;;;5.68;;
69678;SDS011;56915;52.046;4.854;2023-02-11T17:44:09;19.65;;;5.88;;
69678;SDS011;56915;52.046;4.854;2023-02-11T17:46:37;15.90;;;6.80;;
69678;SDS011;56915;52.046;4.854;2023-02-11T17:49:04;15.52;;;6.05;;
69678;SDS011;56915;52.046;4.854;2023-02-11T17:51:42;13.52;;;6.15;;
69678;SDS011;56915;52.046;4.854;2023-02-11T17:54:10;22.38;;;7.63;;